sensor_id;sensor_type;location;lat;lon;timestamp;P1;durP1;ratioP1;P2;durP2;ratioP2
30466;SDS011;17258;52.560;13.046;2024-02-04T00:04:37;6.70;;;2.37;;
30466;SDS011;17258;52.560;13.046;2024-02-04T00:14:39;7.60;;;1.95;;
30466;SDS011;17258;52.560;13.046;2024-02-04T00:24:40;8.52;;;1.85;;
30466;SDS011;17258;52.560;13.046;2024-02-04T00:34:41;7.47;;;2.40;;
30466;SDS011;17258;52.560;13.046;2024-02-04T00:44:41;2.77;;;1.53;;
30466;SDS011;17258;52.560;13.046;2024-02-04T00:54:42;4.90;;;2.10;;
30466;SDS011;17258;52.560;13.046;2024-02-04T01:04:43;4.70;;;1.80;;
30466;SDS011;17258;52.560;13.046;2024-02-04T01:14:43;5.15;;;1.70;;
30466;SDS011;17258;52.560;13.046;2024-02-04T01:24:44;3.73;;;1.53;;
30466;SDS011;17258;52.560;13.046;2024-02-04T01:34:48;4.68;;;1.92;;
30466;SDS011;17258;52.560;13.046;2024-02-04T01:44:48;7.77;;;2.33;;
30466;SDS011;17258;52.560;13.046;2024-02-04T01:54:49;9.85;;;2.35;;
30466;SDS011;17258;52.560;13.046;2024-02-04T02:04:51;5.30;;;2.30;;
30466;SDS011;17258;52.560;13.046;2024-02-04T02:14:54;5.53;;;1.55;;
30466;SDS011;17258;52.560;13.046;2024-02-04T02:25:01;3.03;;;1.58;;
30466;SDS011;17258;52.560;13.046;2024-02-04T02:35:04;8.38;;;2.05;;
30466;SDS011;17258;52.560;13.046;2024-02-04T02:45:06;7.20;;;1.83;;
30466;SDS011;17258;52.560;13.046;2024-02-04T02:55:10;10.95;;;2.30;;
30466;SDS011;17258;52.560;13.046;2024-02-04T03:05:11;2.85;;;1.95;;
30466;SDS011;17258;52.560;13.046;2024-02-04T03:15:13;6.93;;;2.72;;
30466;SDS011;17258;52.560;13.046;2024-02-04T03:25:13;8.23;;;2.03;;
30466;SDS011;17258;52.560;13.046;2024-02-04T03:35:14;5.93;;;2.22;;
30466;SDS011;17258;52.560;13.046;2024-02-04T03:45:15;4.50;;;2.10;;
30466;SDS011;17258;52.560;13.046;2024-02-04T03:55:15;2.60;;;1.97;;
30466;SDS011;17258;52.560;13.046;2024-02-04T04:05:16;5.57;;;2.27;;
30466;SDS011;17258;52.560;13.046;2024-02-04T04:15:17;3.30;;;2.00;;
30466;SDS011;17258;52.560;13.046;2024-02-04T04:25:17;3.00;;;2.00;;
30466;SDS011;17258;52.560;13.046;2024-02-04T04:35:18;3.25;;;2.00;;
30466;SDS011;17258;52.560;13.046;2024-02-04T04:45:19;2.67;;;1.50;;
30466;SDS011;17258;52.560;13.046;2024-02-04T04:55:21;5.68;;;2.10;;
30466;SDS011;17258;52.560;13.046;2024-02-04T05:05:22;2.77;;;1.90;;
30466;SDS011;17258;52.560;13.046;2024-02-04T05:15:22;2.40;;;1.73;;
30466;SDS011;17258;52.560;13.046;2024-02-04T05:25:25;2.22;;;1.27;;
30466;SDS011;17258;52.560;13.046;2024-02-04T05:35:25;3.85;;;1.55;;
30466;SDS011;17258;52.560;13.046;2024-02-04T05:45:26;5.60;;;2.00;;
30466;SDS011;17258;52.560;13.046;2024-02-04T05:55:27;2.28;;;1.70;;
30466;SDS011;17258;52.560;13.046;2024-02-04T06:05:29;3.58;;;2.50;;
30466;SDS011;17258;52.560;13.046;2024-02-04T06:15:29;2.33;;;1.55;;
30466;SDS011;17258;52.560;13.046;2024-02-04T06:25:30;7.30;;;2.45;;
30466;SDS011;17258;52.560;13.046;2024-02-04T06:35:31;3.90;;;2.55;;
30466;SDS011;17258;52.560;13.046;2024-02-04T06:45:32;4.88;;;2.53;;
30466;SDS011;17258;52.560;13.046;2024-02-04T06:55:33;7.07;;;2.93;;
30466;SDS011;17258;52.560;13.046;2024-02-04T07:05:34;4.70;;;2.80;;
30466;SDS011;17258;52.560;13.046;2024-02-04T07:15:35;15.73;;;3.20;;
30466;SDS011;17258;52.560;13.046;2024-02-04T07:25:35;5.23;;;3.03;;
30466;SDS011;17258;52.560;13.046;2024-02-04T07:35:36;3.72;;;3.00;;
30466;SDS011;17258;52.560;13.046;2024-02-04T07:45:37;5.95;;;4.47;;
30466;SDS011;17258;52.560;13.046;2024-02-04T07:55:38;7.22;;;6.25;;
30466;SDS011;17258;52.560;13.046;2024-02-04T08:05:38;12.77;;;11.93;;
30466;SDS011;17258;52.560;13.046;2024-02-04T08:15:39;12.60;;;11.70;;
30466;SDS011;17258;52.560;13.046;2024-02-04T08:25:40;14.40;;;13.20;;
30466;SDS011;17258;52.560;13.046;2024-02-04T08:35:41;17.27;;;16.08;;
30466;SDS011;17258;52.560;13.046;2024-02-04T08:45:42;17.58;;;16.10;;
30466;SDS011;17258;52.560;13.046;2024-02-04T08:55:42;14.83;;;13.67;;
30466;SDS011;17258;52.560;13.046;2024-02-04T09:05:43;14.13;;;13.05;;
30466;SDS011;17258;52.560;13.046;2024-02-04T09:15:44;10.70;;;9.68;;
30466;SDS011;17258;52.560;13.046;2024-02-04T09:25:45;9.75;;;9.15;;
30466;SDS011;17258;52.560;13.046;2024-02-04T09:35:45;9.50;;;8.83;;
30466;SDS011;17258;52.560;13.046;2024-02-04T09:45:47;10.32;;;9.63;;
30466;SDS011;17258;52.560;13.046;2024-02-04T09:55:49;9.63;;;9.13;;
30466;SDS011;17258;52.560;13.046;2024-02-04T10:05:51;9.90;;;8.98;;
30466;SDS011;17258;52.560;13.046;2024-02-04T10:15:52;9.63;;;8.93;;
30466;SDS011;17258;52.560;13.046;2024-02-04T10:25:59;9.73;;;9.13;;
30466;SDS011;17258;52.560;13.046;2024-02-04T10:46:12;16.10;;;14.82;;
30466;SDS011;17258;52.560;13.046;2024-02-04T10:56:18;16.02;;;14.57;;
30466;SDS011;17258;52.560;13.046;2024-02-04T11:06:26;14.45;;;13.30;;
30466;SDS011;17258;52.560;13.046;2024-02-04T11:27:12;17.98;;;16.80;;
30466;SDS011;17258;52.560;13.046;2024-02-04T11:37:16;12.73;;;11.90;;
30466;SDS011;17258;52.560;13.046;2024-02-04T11:47:22;17.13;;;16.13;;
30466;SDS011;17258;52.560;13.046;2024-02-04T11:57:24;17.65;;;16.50;;
30466;SDS011;17258;52.560;13.046;2024-02-04T12:07:26;16.83;;;15.63;;
30466;SDS011;17258;52.560;13.046;2024-02-04T12:17:26;7.32;;;6.72;;
30466;SDS011;17258;52.560;13.046;2024-02-04T12:27:27;5.63;;;3.07;;
30466;SDS011;17258;52.560;13.046;2024-02-04T12:37:28;8.25;;;7.65;;
30466;SDS011;17258;52.560;13.046;2024-02-04T12:47:30;8.05;;;7.35;;
30466;SDS011;17258;52.560;13.046;2024-02-04T12:57:31;6.30;;;4.53;;
30466;SDS011;17258;52.560;13.046;2024-02-04T13:07:32;6.50;;;2.58;;
30466;SDS011;17258;52.560;13.046;2024-02-04T13:17:33;3.07;;;1.87;;
30466;SDS011;17258;52.560;13.046;2024-02-04T13:27:34;3.70;;;2.05;;
30466;SDS011;17258;52.560;13.046;2024-02-04T13:37:41;5.00;;;1.88;;
30466;SDS011;17258;52.560;13.046;2024-02-04T13:47:48;9.52;;;3.10;;
30466;SDS011;17258;52.560;13.046;2024-02-04T13:57:49;5.00;;;1.80;;
30466;SDS011;17258;52.560;13.046;2024-02-04T14:07:50;3.78;;;2.67;;
30466;SDS011;17258;52.560;13.046;2024-02-04T14:17:51;2.85;;;2.22;;
30466;SDS011;17258;52.560;13.046;2024-02-04T14:27:51;3.33;;;2.17;;
30466;SDS011;17258;52.560;13.046;2024-02-04T14:37:52;3.55;;;2.22;;
30466;SDS011;17258;52.560;13.046;2024-02-04T14:47:53;5.60;;;2.03;;
30466;SDS011;17258;52.560;13.046;2024-02-04T14:57:53;7.43;;;1.90;;
30466;SDS011;17258;52.560;13.046;2024-02-04T15:07:54;7.47;;;1.73;;
30466;SDS011;17258;52.560;13.046;2024-02-04T15:17:55;5.83;;;1.90;;
30466;SDS011;17258;52.560;13.046;2024-02-04T15:27:55;2.63;;;1.75;;
30466;SDS011;17258;52.560;13.046;2024-02-04T15:37:56;2.72;;;1.63;;
30466;SDS011;17258;52.560;13.046;2024-02-04T15:47:58;3.05;;;1.65;;
30466;SDS011;17258;52.560;13.046;2024-02-04T15:58:06;4.13;;;2.13;;
30466;SDS011;17258;52.560;13.046;2024-02-04T16:08:08;5.63;;;2.25;;
30466;SDS011;17258;52.560;13.046;2024-02-04T16:18:11;4.10;;;2.13;;
30466;SDS011;17258;52.560;13.046;2024-02-04T16:28:12;2.38;;;1.20;;
30466;SDS011;17258;52.560;13.046;2024-02-04T16:38:13;7.95;;;1.70;;
30466;SDS011;17258;52.560;13.046;2024-02-04T16:48:14;2.05;;;1.45;;
30466;SDS011;17258;52.560;13.046;2024-02-04T16:58:14;4.90;;;1.70;;
30466;SDS011;17258;52.560;13.046;2024-02-04T17:08:15;6.07;;;1.92;;
30466;SDS011;17258;52.560;13.046;2024-02-04T17:18:20;2.33;;;1.45;;
30466;SDS011;17258;52.560;13.046;2024-02-04T17:28:45;1.90;;;1.53;;
30466;SDS011;17258;52.560;13.046;2024-02-04T17:38:45;7.28;;;1.95;;
30466;SDS011;17258;52.560;13.046;2024-02-04T17:48:46;2.92;;;1.50;;
30466;SDS011;17258;52.560;13.046;2024-02-04T17:58:47;2.87;;;1.60;;
30466;SDS011;17258;52.560;13.046;2024-02-04T18:08:49;2.40;;;1.30;;
30466;SDS011;17258;52.560;13.046;2024-02-04T18:18:49;3.60;;;1.33;;
30466;SDS011;17258;52.560;13.046;2024-02-04T18:28:52;2.22;;;1.30;;
30466;SDS011;17258;52.560;13.046;2024-02-04T18:38:54;3.25;;;1.52;;
30466;SDS011;17258;52.560;13.046;2024-02-04T18:48:57;2.38;;;1.30;;
30466;SDS011;17258;52.560;13.046;2024-02-04T18:58:58;1.70;;;1.15;;
30466;SDS011;17258;52.560;13.046;2024-02-04T19:08:59;2.22;;;1.48;;
30466;SDS011;17258;52.560;13.046;2024-02-04T19:19:00;1.20;;;1.10;;
30466;SDS011;17258;52.560;13.046;2024-02-04T19:29:03;2.08;;;1.05;;
30466;SDS011;17258;52.560;13.046;2024-02-04T19:39:03;2.53;;;1.37;;
30466;SDS011;17258;52.560;13.046;2024-02-04T19:49:06;3.20;;;1.52;;
30466;SDS011;17258;52.560;13.046;2024-02-04T19:59:07;1.33;;;1.10;;
30466;SDS011;17258;52.560;13.046;2024-02-04T20:09:09;1.50;;;1.10;;
30466;SDS011;17258;52.560;13.046;2024-02-04T20:19:09;0.82;;;0.75;;
30466;SDS011;17258;52.560;13.046;2024-02-04T20:29:10;2.67;;;0.90;;
30466;SDS011;17258;52.560;13.046;2024-02-04T20:39:11;2.33;;;1.13;;
30466;SDS011;17258;52.560;13.046;2024-02-04T20:49:12;1.13;;;0.80;;
30466;SDS011;17258;52.560;13.046;2024-02-04T20:59:13;1.02;;;0.80;;
30466;SDS011;17258;52.560;13.046;2024-02-04T21:09:14;1.00;;;0.90;;
30466;SDS011;17258;52.560;13.046;2024-02-04T21:19:15;1.10;;;0.80;;
30466;SDS011;17258;52.560;13.046;2024-02-04T21:29:16;1.33;;;0.83;;
30466;SDS011;17258;52.560;13.046;2024-02-04T21:39:17;0.83;;;0.77;;
30466;SDS011;17258;52.560;13.046;2024-02-04T21:49:18;1.48;;;0.88;;
30466;SDS011;17258;52.560;13.046;2024-02-04T21:59:19;1.30;;;1.03;;
30466;SDS011;17258;52.560;13.046;2024-02-04T22:09:20;0.63;;;0.63;;
30466;SDS011;17258;52.560;13.046;2024-02-04T22:19:21;0.95;;;0.73;;
30466;SDS011;17258;52.560;13.046;2024-02-04T22:29:23;1.20;;;0.98;;
30466;SDS011;17258;52.560;13.046;2024-02-04T22:39:23;1.03;;;0.90;;
30466;SDS011;17258;52.560;13.046;2024-02-04T22:49:24;0.93;;;0.93;;
30466;SDS011;17258;52.560;13.046;2024-02-04T22:59:25;0.90;;;0.90;;
30466;SDS011;17258;52.560;13.046;2024-02-04T23:09:27;0.73;;;0.73;;
30466;SDS011;17258;52.560;13.046;2024-02-04T23:19:27;0.90;;;0.90;;
30466;SDS011;17258;52.560;13.046;2024-02-04T23:29:28;1.17;;;1.07;;
30466;SDS011;17258;52.560;13.046;2024-02-04T23:39:29;1.33;;;1.10;;
30466;SDS011;17258;52.560;13.046;2024-02-04T23:49:29;1.83;;;1.73;;
30466;SDS011;17258;52.560;13.046;2024-02-04T23:59:30;2.20;;;1.70;;
